createdAt,value
2022-08-26T00:02:16.627Z,43.37
2022-08-26T00:04:47.630Z,35.47
2022-08-26T00:07:14.643Z,43.43
2022-08-26T00:09:41.587Z,39.83
2022-08-26T00:12:14.290Z,38.27
2022-08-26T00:14:41.955Z,29.97
2022-08-26T00:17:08.972Z,30.97
2022-08-26T00:19:35.941Z,36.83
2022-08-26T00:22:02.813Z,35.10
2022-08-26T00:24:29.509Z,41.60
2022-08-26T00:26:58.217Z,31.47
2022-08-26T00:29:25.227Z,34.73
2022-08-26T00:31:52.077Z,33.70
2022-08-26T00:34:19.434Z,33.93
2022-08-26T00:36:46.549Z,35.57
2022-08-26T00:39:13.229Z,33.97
2022-08-26T00:41:40.099Z,38.07
2022-08-26T00:44:07.053Z,36.63
2022-08-26T00:46:34.892Z,40.77
2022-08-26T00:49:11.625Z,34.00
2022-08-26T00:51:50.477Z,36.03
2022-08-26T00:54:18.448Z,34.00
2022-08-26T00:56:45.392Z,34.80
2022-08-26T00:59:13.966Z,32.27
2022-08-26T01:04:28.697Z,31.73
2022-08-26T01:09:40.321Z,30.60
2022-08-26T01:12:07.841Z,27.63
2022-08-26T01:14:35.167Z,29.40
2022-08-26T01:17:05.104Z,28.47
2022-08-26T01:19:32.823Z,27.60
2022-08-26T01:22:00.348Z,26.23
2022-08-26T01:24:27.690Z,24.13
2022-08-26T01:29:41.558Z,26.03
2022-08-26T01:32:09.005Z,28.87
2022-08-26T01:34:36.873Z,26.87
2022-08-26T01:37:05.299Z,24.23
2022-08-26T01:42:17.305Z,27.33
2022-08-26T01:44:48.166Z,24.57
2022-08-26T01:47:15.128Z,26.43
2022-08-26T01:49:41.909Z,28.00
2022-08-26T01:52:08.835Z,24.60
2022-08-26T01:54:39.612Z,32.03
2022-08-26T01:57:08.025Z,24.43
2022-08-26T01:59:35.252Z,23.70
2022-08-26T02:02:02.052Z,21.67
2022-08-26T02:04:31.512Z,25.80
2022-08-26T02:06:59.465Z,23.13
2022-08-26T02:09:26.136Z,25.53
2022-08-26T02:11:53.577Z,27.60
2022-08-26T02:14:26.870Z,29.33
2022-08-26T02:16:54.046Z,26.77
2022-08-26T02:19:21.896Z,22.53
2022-08-26T02:21:51.353Z,27.23
2022-08-26T02:24:22.806Z,21.03
2022-08-26T02:26:50.361Z,27.57
2022-08-26T02:29:26.304Z,22.00
2022-08-26T02:31:53.512Z,25.00
2022-08-26T02:34:21.994Z,24.43
2022-08-26T02:36:49.407Z,29.83
2022-08-26T02:39:22.346Z,24.30
2022-08-26T02:41:49.382Z,29.80
2022-08-26T02:44:16.049Z,29.37
2022-08-26T02:46:44.508Z,25.93
2022-08-26T02:49:14.067Z,24.57
2022-08-26T02:51:40.818Z,27.53
2022-08-26T02:56:54.054Z,20.83
2022-08-26T02:59:24.451Z,19.53
2022-08-26T03:01:51.756Z,22.67
2022-08-26T03:04:18.589Z,23.77
2022-08-26T03:06:46.967Z,20.73
2022-08-26T03:09:19.375Z,18.57
2022-08-26T03:14:31.443Z,11.80
2022-08-26T03:16:58.344Z,15.00
2022-08-26T03:19:25.985Z,15.93
2022-08-26T03:21:57.998Z,16.93
2022-08-26T03:24:26.023Z,24.00
2022-08-26T03:26:53.202Z,15.93
2022-08-26T03:29:39.358Z,22.50
2022-08-26T03:32:06.218Z,16.97
2022-08-26T03:34:33.633Z,17.27
2022-08-26T03:37:00.563Z,22.67
2022-08-26T03:39:27.580Z,19.37
2022-08-26T03:41:58.973Z,16.27
2022-08-26T03:47:12.981Z,16.20
2022-08-26T03:49:39.928Z,18.10
2022-08-26T03:52:06.985Z,14.57
2022-08-26T03:54:33.765Z,15.17
2022-08-26T03:57:00.829Z,15.10
2022-08-26T03:59:28.069Z,15.90
2022-08-26T04:01:55.713Z,16.93
2022-08-26T04:04:24.382Z,17.47
2022-08-26T04:06:55.591Z,17.37
2022-08-26T04:09:22.420Z,22.00
2022-08-26T04:11:50.487Z,21.50
2022-08-26T04:14:21.933Z,19.80
2022-08-26T04:16:48.985Z,19.40
2022-08-26T04:19:15.840Z,17.60
2022-08-26T04:24:27.860Z,39.70
2022-08-26T04:29:41.528Z,35.33
2022-08-26T04:32:08.855Z,33.67
2022-08-26T04:41:15.491Z,33.17
2022-08-26T04:43:43.827Z,42.43
2022-08-26T04:46:12.947Z,40.73
2022-08-26T04:48:41.337Z,43.87
2022-08-26T04:51:08.759Z,42.03
2022-08-26T04:53:36.574Z,37.83
2022-08-26T04:56:03.896Z,36.60
2022-08-26T04:58:31.252Z,40.07
2022-08-26T05:00:58.592Z,25.73
2022-08-26T05:03:30.335Z,25.87
2022-08-26T05:05:57.826Z,27.60
2022-08-26T05:08:24.530Z,34.23
2022-08-26T05:10:54.696Z,30.40
2022-08-26T05:13:22.880Z,30.60
2022-08-26T05:15:49.771Z,29.10
2022-08-26T05:18:17.281Z,35.87
2022-08-26T05:23:34.627Z,30.87
2022-08-26T05:26:01.433Z,26.87
2022-08-26T05:28:31.931Z,31.47
2022-08-26T05:30:58.897Z,24.20
2022-08-26T05:33:25.930Z,27.00
2022-08-26T05:35:52.646Z,22.43
2022-08-26T05:38:20.176Z,21.63
2022-08-26T05:40:49.188Z,29.20
2022-08-26T05:43:20.055Z,28.03
2022-08-26T05:45:48.151Z,25.93
2022-08-26T05:48:16.424Z,33.40
2022-08-26T05:50:47.332Z,21.87
2022-08-26T05:53:14.821Z,31.90
2022-08-26T05:58:29.392Z,29.77
2022-08-26T06:00:56.936Z,29.77
2022-08-26T06:03:25.095Z,28.20
2022-08-26T06:05:51.875Z,28.53
2022-08-26T06:08:21.193Z,23.80
2022-08-26T06:11:06.548Z,27.83
2022-08-26T06:13:35.167Z,32.00
2022-08-26T06:16:03.618Z,25.43
2022-08-26T06:18:51.438Z,25.30
2022-08-26T06:21:18.442Z,24.87
2022-08-26T06:24:04.437Z,23.83
2022-08-26T06:26:31.479Z,28.50
2022-08-26T06:28:58.664Z,27.10
2022-08-26T06:31:26.258Z,27.70
2022-08-26T06:33:54.158Z,24.77
2022-08-26T06:36:25.699Z,22.90
2022-08-26T06:38:53.100Z,24.00
2022-08-26T06:41:21.233Z,21.63
2022-08-26T06:43:48.228Z,24.70
2022-08-26T06:49:01.340Z,25.87
2022-08-26T06:54:13.481Z,26.80
2022-08-26T06:56:41.152Z,28.10
2022-08-26T06:59:08.333Z,29.60
2022-08-26T07:01:37.420Z,29.20
2022-08-26T07:04:05.616Z,27.80
2022-08-26T07:06:40.812Z,23.77
2022-08-26T07:09:27.300Z,31.53
2022-08-26T07:11:56.414Z,26.20
2022-08-26T07:14:23.965Z,25.43
2022-08-26T07:16:52.879Z,26.23
2022-08-26T07:19:47.114Z,28.30
2022-08-26T07:28:38.589Z,31.17
2022-08-26T07:44:13.657Z,26.60
2022-08-26T07:47:04.083Z,29.57
2022-08-26T07:50:02.510Z,27.73
2022-08-26T07:52:29.901Z,33.10
2022-08-26T07:54:58.339Z,30.40
2022-08-26T07:57:26.356Z,32.93
2022-08-26T08:06:06.561Z,27.20
2022-08-26T08:08:35.684Z,29.27
2022-08-26T08:11:02.624Z,30.90
2022-08-26T08:13:30.097Z,32.97
2022-08-26T08:15:57.494Z,25.83
2022-08-26T08:18:24.503Z,31.73
2022-08-26T08:21:04.732Z,27.23
2022-08-26T08:23:32.433Z,25.07
2022-08-26T08:26:06.321Z,26.37
2022-08-26T08:28:36.836Z,27.07
2022-08-26T08:31:03.903Z,35.87
2022-08-26T08:33:32.118Z,26.07
2022-08-26T08:35:59.289Z,23.23
2022-08-26T08:38:26.451Z,29.67
2022-08-26T08:40:53.363Z,30.90
2022-08-26T08:43:26.693Z,24.93
2022-08-26T08:45:56.959Z,27.23
2022-08-26T08:48:29.937Z,22.47
2022-08-26T08:51:04.349Z,35.73
2022-08-26T08:53:33.871Z,29.23
2022-08-26T08:56:08.784Z,25.00
2022-08-26T08:58:44.703Z,21.87
2022-08-26T09:01:22.540Z,22.97
2022-08-26T09:04:11.012Z,25.23
2022-08-26T09:06:38.479Z,26.10
2022-08-26T09:09:08.983Z,24.80
2022-08-26T09:14:21.070Z,28.13
2022-08-26T09:16:52.276Z,21.67
2022-08-26T09:19:27.350Z,23.47
2022-08-26T09:21:57.892Z,23.27
2022-08-26T09:24:28.328Z,21.40
2022-08-26T09:26:58.354Z,21.83
2022-08-26T09:29:26.741Z,17.57
2022-08-26T09:32:13.307Z,18.53
2022-08-26T09:34:52.416Z,15.40
2022-08-26T09:37:32.631Z,19.60
2022-08-26T09:43:14.640Z,17.67
2022-08-26T09:48:32.534Z,18.27
2022-08-26T09:53:51.330Z,18.13
2022-08-26T09:56:35.054Z,21.33
2022-08-26T09:59:03.110Z,17.63
2022-08-26T10:04:31.450Z,14.80
2022-08-26T10:07:03.023Z,14.93
2022-08-26T10:09:48.333Z,14.07
2022-08-26T10:12:21.625Z,11.30
2022-08-26T10:14:48.979Z,12.77
2022-08-26T10:17:23.127Z,13.23
2022-08-26T10:19:59.794Z,10.10
2022-08-26T10:25:24.897Z,9.67
2022-08-26T10:28:04.576Z,11.87
2022-08-26T10:30:38.977Z,13.20
2022-08-26T10:33:12.014Z,9.07
2022-08-26T10:35:50.099Z,13.80
2022-08-26T10:38:18.931Z,12.13
2022-08-26T10:40:54.713Z,8.00
2022-08-26T10:43:33.917Z,8.00
2022-08-26T10:46:07.024Z,9.83
2022-08-26T10:48:37.125Z,13.50
2022-08-26T10:51:04.334Z,8.33
2022-08-26T10:53:51.367Z,10.10
2022-08-26T10:56:36.596Z,14.23
2022-08-26T10:59:06.693Z,10.80
2022-08-26T11:01:44.006Z,9.63
2022-08-26T11:04:22.417Z,11.30
2022-08-26T11:06:49.771Z,11.50
2022-08-26T11:12:39.144Z,10.30
2022-08-26T11:17:51.830Z,12.07
2022-08-26T11:20:23.917Z,8.43
2022-08-26T11:22:51.298Z,8.77
2022-08-26T11:25:18.744Z,9.53
2022-08-26T11:27:50.407Z,9.43
2022-08-26T11:30:18.391Z,12.23
2022-08-26T11:32:58.221Z,10.10
2022-08-26T11:35:25.043Z,13.20
2022-08-26T11:37:52.569Z,10.03
2022-08-26T11:40:21.829Z,12.13
2022-08-26T11:45:50.136Z,11.30
2022-08-26T11:48:21.394Z,9.50
2022-08-26T11:50:55.313Z,10.83
2022-08-26T11:53:24.299Z,7.13
2022-08-26T11:55:53.837Z,9.80
2022-08-26T11:58:21.064Z,11.77
2022-08-26T12:00:51.145Z,13.83
2022-08-26T12:03:19.579Z,11.37
2022-08-26T12:05:47.411Z,7.23
2022-08-26T12:08:16.384Z,8.07
2022-08-26T12:11:03.724Z,10.10
2022-08-26T12:13:30.927Z,7.73
2022-08-26T12:15:58.636Z,9.27
2022-08-26T12:18:38.396Z,10.67
2022-08-26T12:21:16.232Z,8.33
2022-08-26T12:23:46.998Z,10.20
2022-08-26T12:26:21.071Z,8.20
2022-08-26T12:28:52.078Z,7.50
2022-08-26T12:31:24.975Z,12.47
2022-08-26T12:33:53.030Z,5.57
2022-08-26T12:36:22.292Z,10.83
2022-08-26T12:38:50.131Z,11.50
2022-08-26T12:41:39.732Z,12.77
2022-08-26T12:44:07.699Z,7.07
2022-08-26T12:46:34.961Z,9.10
2022-08-26T12:49:03.180Z,5.37
2022-08-26T12:51:32.091Z,13.27
2022-08-26T12:53:59.229Z,7.17
2022-08-26T12:56:29.665Z,10.13
2022-08-26T13:02:00.313Z,9.50
2022-08-26T13:04:43.105Z,6.90
2022-08-26T13:07:14.789Z,7.43
2022-08-26T13:09:42.111Z,9.40
2022-08-26T13:14:56.558Z,8.20
2022-08-26T13:20:08.236Z,9.67
2022-08-26T13:22:35.176Z,8.67
2022-08-26T13:25:02.336Z,12.93
2022-08-26T13:27:29.319Z,6.83
2022-08-26T13:32:42.368Z,9.37
2022-08-26T13:37:55.669Z,6.87
2022-08-26T13:40:22.726Z,10.17
2022-08-26T13:42:50.278Z,10.83
2022-08-26T13:45:17.178Z,11.77
2022-08-26T13:47:44.904Z,10.97
2022-08-26T13:50:11.738Z,7.43
2022-08-26T13:52:38.580Z,8.20
2022-08-26T13:55:07.893Z,8.30
2022-08-26T13:57:35.080Z,7.47
2022-08-26T14:00:02.139Z,6.20
2022-08-26T14:02:37.336Z,10.03
2022-08-26T14:05:04.791Z,7.03
2022-08-26T14:07:31.837Z,7.97
2022-08-26T14:09:58.773Z,15.27
2022-08-26T14:12:25.813Z,5.87
2022-08-26T14:14:52.782Z,10.27
2022-08-26T14:17:20.788Z,10.20
2022-08-26T14:19:48.299Z,7.93
2022-08-26T14:22:18.921Z,6.57
2022-08-26T14:24:45.927Z,10.73
2022-08-26T14:27:12.993Z,10.60
2022-08-26T14:29:40.005Z,12.17
2022-08-26T14:32:09.934Z,9.83
2022-08-26T14:34:37.628Z,8.43
2022-08-26T14:37:07.766Z,10.73
2022-08-26T14:39:35.911Z,10.97
2022-08-26T14:42:02.834Z,6.80
2022-08-26T14:44:30.646Z,9.40
2022-08-26T14:49:44.451Z,9.63
2022-08-26T14:52:11.377Z,7.13
2022-08-26T14:54:39.084Z,7.97
2022-08-26T14:57:07.649Z,9.30
2022-08-26T14:59:36.607Z,8.20
2022-08-26T15:02:03.968Z,7.10
2022-08-26T15:04:31.483Z,6.57
2022-08-26T15:09:43.931Z,7.30
2022-08-26T15:12:10.872Z,5.40
2022-08-26T15:14:38.227Z,9.60
2022-08-26T15:17:05.417Z,10.20
2022-08-26T15:19:32.430Z,7.60
2022-08-26T15:21:59.323Z,13.53
2022-08-26T15:24:27.215Z,12.63
2022-08-26T15:26:54.124Z,7.67
2022-08-26T15:29:24.622Z,11.50
2022-08-26T15:31:51.415Z,8.63
2022-08-26T15:34:22.092Z,8.17
2022-08-26T15:36:48.889Z,10.40
2022-08-26T15:39:16.169Z,13.93
2022-08-26T15:41:43.086Z,13.33
2022-08-26T15:44:10.395Z,10.67
2022-08-26T15:46:37.701Z,8.47
2022-08-26T15:49:05.737Z,12.80
2022-08-26T15:51:45.142Z,9.07
2022-08-26T15:57:02.286Z,11.43
2022-08-26T15:59:31.682Z,11.63
2022-08-26T16:01:59.586Z,11.40
2022-08-26T16:04:29.232Z,7.73
2022-08-26T16:06:56.586Z,14.15
2022-08-26T16:09:24.521Z,9.53
2022-08-26T16:11:51.907Z,11.73
2022-08-26T16:14:18.886Z,8.97
2022-08-26T16:16:45.919Z,11.20
2022-08-26T16:19:16.930Z,11.40
2022-08-26T16:21:43.950Z,9.03
2022-08-26T16:24:11.128Z,9.60
2022-08-26T16:26:38.376Z,12.10
2022-08-26T16:29:06.828Z,10.70
2022-08-26T16:31:34.031Z,9.97
2022-08-26T16:34:00.935Z,10.83
2022-08-26T16:36:28.679Z,13.43
2022-08-26T16:38:56.539Z,11.33
2022-08-26T16:41:24.031Z,8.77
2022-08-26T16:43:51.123Z,15.20
2022-08-26T16:46:18.834Z,13.50
2022-08-26T16:48:45.833Z,11.50
2022-08-26T16:54:01.998Z,13.17
2022-08-26T16:56:34.098Z,14.63
2022-08-26T16:59:02.027Z,10.40
2022-08-26T17:01:28.869Z,13.07
2022-08-26T17:03:55.805Z,10.20
2022-08-26T17:06:23.720Z,14.37
2022-08-26T17:08:50.773Z,16.93
2022-08-26T17:11:17.831Z,12.77
2022-08-26T17:13:45.080Z,13.17
2022-08-26T17:16:12.315Z,10.27
2022-08-26T17:18:39.323Z,14.90
2022-08-26T17:21:07.660Z,9.97
2022-08-26T17:23:34.971Z,12.63
2022-08-26T17:26:02.204Z,15.93
2022-08-26T17:28:29.134Z,12.10
2022-08-26T17:30:57.102Z,14.00
2022-08-26T17:33:25.340Z,17.27
2022-08-26T17:35:54.898Z,13.67
2022-08-26T17:38:22.087Z,13.87
2022-08-26T17:40:50.383Z,11.77
2022-08-26T17:43:17.859Z,11.50
2022-08-26T17:45:44.585Z,13.33
2022-08-26T17:48:11.776Z,11.53
2022-08-26T17:50:39.361Z,10.27
2022-08-26T17:53:06.118Z,14.87
2022-08-26T17:58:20.060Z,14.37
2022-08-26T18:00:48.091Z,14.20
2022-08-26T18:03:14.995Z,16.57
2022-08-26T18:05:42.599Z,18.40
2022-08-26T18:10:56.217Z,12.80
2022-08-26T18:16:07.779Z,10.60
2022-08-26T18:18:34.874Z,15.37
2022-08-26T18:21:02.109Z,13.97
2022-08-26T18:23:28.863Z,10.87
2022-08-26T18:28:45.013Z,13.70
2022-08-26T18:33:58.367Z,14.17
2022-08-26T18:39:12.410Z,13.93
2022-08-26T18:44:30.230Z,17.50
2022-08-26T18:46:57.124Z,12.40
2022-08-26T18:49:24.043Z,14.30
2022-08-26T18:51:52.560Z,11.27
2022-08-26T18:57:03.927Z,13.10
2022-08-26T18:59:35.418Z,11.60
2022-08-26T19:02:02.819Z,12.20
2022-08-26T19:04:31.275Z,12.17
2022-08-26T19:06:58.094Z,10.60
2022-08-26T19:09:26.473Z,12.43
2022-08-26T19:14:21.476Z,16.70
2022-08-26T19:16:48.733Z,14.50
2022-08-26T19:19:16.007Z,10.37
2022-08-26T19:24:28.322Z,13.93
2022-08-26T19:26:57.558Z,12.93
2022-08-26T19:29:30.279Z,14.37
2022-08-26T19:31:58.198Z,16.37
2022-08-26T19:34:24.995Z,12.53
2022-08-26T19:36:53.331Z,17.10
2022-08-26T19:39:21.260Z,12.93
2022-08-26T19:41:48.417Z,15.10
2022-08-26T19:44:35.936Z,15.03
2022-08-26T19:47:03.780Z,16.97
2022-08-26T19:49:31.366Z,13.60
2022-08-26T19:51:58.350Z,17.63
2022-08-26T19:54:25.362Z,14.53
2022-08-26T19:56:52.535Z,15.23
2022-08-26T19:59:20.107Z,15.70
2022-08-26T20:02:00.434Z,14.50
2022-08-26T20:04:28.900Z,17.97
2022-08-26T20:07:00.321Z,15.00
2022-08-26T20:12:13.022Z,15.50
2022-08-26T20:14:40.192Z,15.73
2022-08-26T20:17:08.949Z,18.90
2022-08-26T20:19:55.593Z,18.80
2022-08-26T20:22:23.191Z,21.10
2022-08-26T20:24:54.525Z,19.60
2022-08-26T20:27:38.365Z,18.37
2022-08-26T20:30:06.049Z,17.77
2022-08-26T20:32:35.565Z,15.97
2022-08-26T20:35:03.116Z,14.63
2022-08-26T20:37:30.109Z,14.77
2022-08-26T20:39:57.581Z,15.90
2022-08-26T20:42:25.094Z,14.77
2022-08-26T20:44:54.775Z,16.77
2022-08-26T20:47:22.300Z,12.60
2022-08-26T20:49:50.702Z,14.13
2022-08-26T20:52:21.186Z,15.50
2022-08-26T20:57:32.975Z,12.83
2022-08-26T21:00:02.505Z,16.57
2022-08-26T21:02:29.560Z,12.57
2022-08-26T21:04:56.707Z,15.00
2022-08-26T21:07:24.635Z,14.33
2022-08-26T21:09:51.689Z,17.13
2022-08-26T21:12:18.828Z,15.33
2022-08-26T21:17:34.726Z,17.37
2022-08-26T21:22:47.784Z,15.00
2022-08-26T21:29:29.393Z,13.67
2022-08-26T21:31:57.960Z,17.97
2022-08-26T21:34:25.231Z,16.93
2022-08-26T21:36:53.340Z,15.43
2022-08-26T21:39:57.312Z,12.97
2022-08-26T21:48:17.890Z,16.37
2022-08-26T21:50:45.661Z,14.10
2022-08-26T21:53:15.588Z,17.90
2022-08-26T21:55:42.710Z,21.17
2022-08-26T21:58:10.016Z,32.67
2022-08-26T22:00:37.496Z,19.07
2022-08-26T22:03:04.599Z,21.67
2022-08-26T22:08:16.806Z,24.77
2022-08-26T22:10:43.944Z,25.63
2022-08-26T22:13:11.015Z,20.00
2022-08-26T22:15:40.654Z,23.87
2022-08-26T22:18:09.004Z,21.13
2022-08-26T22:20:36.922Z,18.17
2022-08-26T22:23:04.237Z,19.43
2022-08-26T22:25:31.278Z,19.50
2022-08-26T22:27:58.305Z,18.07
2022-08-26T22:30:25.265Z,14.27
2022-08-26T22:32:52.274Z,20.93
2022-08-26T22:35:29.135Z,18.10
2022-08-26T22:37:57.324Z,18.93
2022-08-26T22:40:24.551Z,14.87
2022-08-26T22:42:55.688Z,18.03
2022-08-26T22:45:27.714Z,14.73
2022-08-26T22:47:54.481Z,13.40
2022-08-26T22:50:21.326Z,16.60
2022-08-26T22:52:48.191Z,14.07
2022-08-26T22:55:15.106Z,14.37
2022-08-26T22:57:42.274Z,14.53
2022-08-26T23:02:56.394Z,14.40
2022-08-26T23:08:07.844Z,14.23
2022-08-26T23:13:18.709Z,14.73
2022-08-26T23:18:30.137Z,15.00
2022-08-26T23:20:57.098Z,13.37
2022-08-26T23:23:24.043Z,14.70
2022-08-26T23:25:50.766Z,13.73
2022-08-26T23:28:17.622Z,12.60
2022-08-26T23:30:44.365Z,15.50
2022-08-26T23:33:12.358Z,14.30
2022-08-26T23:35:40.622Z,14.43
2022-08-26T23:38:10.189Z,19.27
2022-08-26T23:40:40.912Z,13.37
2022-08-26T23:43:08.239Z,13.07
2022-08-26T23:45:35.117Z,12.87
2022-08-26T23:48:02.071Z,12.83
2022-08-26T23:50:49.393Z,14.17
2022-08-26T23:53:20.126Z,14.83
2022-08-26T23:55:48.348Z,12.57
2022-08-26T23:58:15.700Z,13.77
